Terminal Aerodrome Forecast
Issued by NWS

Home | Current Version | Previous Version | Text Only | Print | Product List | Glossary On
Versions: 1 2 3 4 5 6 7 8 9 10 11 12 13 14 15 16 17
801
FTUS46 KSEW 051140
TAFPAE
TAF
KPAE 051140Z 0512/0612 12008KT P6SM OVC020
     FM051300 16011KT P6SM -SHSN OVC015
      TEMPO 0513/0517 2SM -SHSN BR OVC005
     FM051800 17011KT 5SM -SHSN BR BKN016 OVC025
      TEMPO 0518/0522 2SM -SHSN BR OVC010
     FM060200 02005KT P6SM SCT020 OVC035
      TEMPO 0602/0604 5SM -SN BKN010 OVC030
     FM060600 03008KT P6SM SCT030 BKN080=

USA.gov is the U.S. government's official web portal to all federal, state and local government web resources and services.